createdAt,value
2023-12-13T00:00:38.579Z,2.50
2023-12-13T00:03:06.032Z,2.03
2023-12-13T00:05:33.636Z,5.00
2023-12-13T00:08:00.962Z,5.77
2023-12-13T00:10:28.341Z,4.10
2023-12-13T00:12:55.671Z,4.27
2023-12-13T00:15:23.015Z,4.27
2023-12-13T00:17:51.005Z,4.10
2023-12-13T00:20:18.681Z,4.80
2023-12-13T00:22:46.116Z,4.50
2023-12-13T00:25:13.560Z,5.20
2023-12-13T00:27:40.935Z,3.50
2023-12-13T00:30:08.922Z,6.70
2023-12-13T00:32:36.664Z,2.90
2023-12-13T00:35:04.364Z,3.37
2023-12-13T00:37:31.884Z,2.47
2023-12-13T00:39:59.621Z,2.70
2023-12-13T00:42:27.369Z,3.10
2023-12-13T00:44:54.810Z,3.97
2023-12-13T00:47:22.232Z,2.77
2023-12-13T00:49:49.637Z,2.00
2023-12-13T00:52:17.421Z,2.43
2023-12-13T00:54:45.137Z,1.60
2023-12-13T00:57:14.270Z,1.60
2023-12-13T00:59:41.661Z,1.43
2023-12-13T01:02:09.087Z,1.43
2023-12-13T01:04:39.736Z,1.17
2023-12-13T01:07:07.181Z,1.30
2023-12-13T01:09:34.502Z,1.93
2023-12-13T01:12:02.008Z,1.57
2023-12-13T01:14:30.040Z,1.60
2023-12-13T01:16:57.507Z,1.57
2023-12-13T01:19:25.931Z,1.60
2023-12-13T01:21:53.607Z,1.10
2023-12-13T01:24:20.920Z,1.90
2023-12-13T01:26:48.239Z,1.90
2023-12-13T01:29:15.741Z,1.10
2023-12-13T01:31:43.104Z,0.97
2023-12-13T01:34:10.517Z,0.90
2023-12-13T01:36:44.212Z,1.10
2023-12-13T01:39:13.738Z,1.07
2023-12-13T01:41:43.562Z,1.33
2023-12-13T01:44:11.466Z,1.40
2023-12-13T01:46:39.498Z,3.00
2023-12-13T01:49:08.299Z,5.10
2023-12-13T01:51:37.272Z,5.70
2023-12-13T01:54:07.746Z,5.47
2023-12-13T01:56:35.688Z,5.70
2023-12-13T01:59:04.177Z,4.67
2023-12-13T02:01:31.918Z,4.30
2023-12-13T02:03:59.497Z,4.67
2023-12-13T02:06:26.782Z,2.50
2023-12-13T02:08:54.252Z,3.10
2023-12-13T02:11:22.301Z,2.27
2023-12-13T02:13:52.012Z,1.90
2023-12-13T02:16:19.350Z,2.03
2023-12-13T02:18:46.917Z,1.73
2023-12-13T02:21:14.256Z,2.00
2023-12-13T02:23:41.811Z,2.00
2023-12-13T02:26:11.748Z,2.43
2023-12-13T02:28:39.317Z,1.83
2023-12-13T02:31:07.373Z,2.40
2023-12-13T02:33:35.055Z,2.23
2023-12-13T02:36:07.235Z,2.37
2023-12-13T02:38:34.537Z,2.60
2023-12-13T02:41:02.088Z,2.53
2023-12-13T02:43:31.421Z,2.20
2023-12-13T02:45:59.030Z,2.13
2023-12-13T02:48:26.647Z,1.80
2023-12-13T02:50:54.234Z,1.73
2023-12-13T02:53:22.455Z,2.00
2023-12-13T02:55:50.479Z,1.90
2023-12-13T02:58:18.145Z,1.90
2023-12-13T03:00:45.586Z,1.80
2023-12-13T03:03:12.986Z,1.57
2023-12-13T03:05:40.374Z,1.77
2023-12-13T03:08:07.848Z,1.70
2023-12-13T03:10:35.125Z,1.40
2023-12-13T03:13:02.509Z,2.03
2023-12-13T03:15:29.800Z,1.70
2023-12-13T03:17:57.358Z,1.63
2023-12-13T03:20:24.797Z,1.67
2023-12-13T03:22:52.110Z,1.80
2023-12-13T03:25:19.842Z,1.80
2023-12-13T03:27:47.142Z,2.43
2023-12-13T03:30:14.482Z,1.40
2023-12-13T03:32:41.922Z,1.20
2023-12-13T03:35:09.381Z,1.00
2023-12-13T03:37:37.060Z,1.07
2023-12-13T03:40:05.227Z,1.20
2023-12-13T03:42:32.581Z,1.97
2023-12-13T03:44:59.990Z,1.93
2023-12-13T03:47:27.418Z,2.30
2023-12-13T03:49:54.841Z,1.80
2023-12-13T03:52:22.201Z,1.67
2023-12-13T03:54:49.516Z,1.13
2023-12-13T03:57:16.857Z,1.10
2023-12-13T03:59:44.174Z,0.93
2023-12-13T04:02:11.607Z,0.93
2023-12-13T04:04:39.064Z,0.70
2023-12-13T04:07:10.448Z,0.90
2023-12-13T04:09:37.739Z,0.60
2023-12-13T04:12:05.663Z,0.70
2023-12-13T04:14:33.045Z,0.87
2023-12-13T04:17:00.435Z,1.10
2023-12-13T04:19:27.780Z,1.80
2023-12-13T04:21:55.089Z,1.00
2023-12-13T04:24:22.416Z,0.70
2023-12-13T04:26:49.792Z,1.00
2023-12-13T04:29:17.247Z,0.90
2023-12-13T04:31:44.995Z,0.87
2023-12-13T04:34:12.347Z,0.70
2023-12-13T04:36:39.656Z,0.80
2023-12-13T04:39:06.978Z,0.97
2023-12-13T04:41:34.239Z,0.80
2023-12-13T04:44:01.601Z,1.20
2023-12-13T04:46:29.017Z,1.27
2023-12-13T04:48:56.403Z,12.80
2023-12-13T04:51:23.694Z,5.40
2023-12-13T04:53:51.051Z,4.40
2023-12-13T04:56:18.836Z,1.27
2023-12-13T04:58:46.128Z,1.00
2023-12-13T05:01:13.817Z,0.90
2023-12-13T05:03:42.423Z,1.23
2023-12-13T05:06:10.963Z,1.00
2023-12-13T05:08:38.253Z,0.80
2023-12-13T05:11:06.038Z,0.80
2023-12-13T05:13:33.324Z,0.77
2023-12-13T05:16:00.970Z,0.70
2023-12-13T05:18:28.209Z,0.70
2023-12-13T05:20:55.835Z,1.20
2023-12-13T05:23:23.224Z,1.00
2023-12-13T05:25:52.496Z,2.87
2023-12-13T05:28:19.863Z,1.73
2023-12-13T05:30:47.709Z,1.50
2023-12-13T05:33:15.108Z,1.83
2023-12-13T05:35:42.401Z,2.20
2023-12-13T05:38:10.153Z,1.10
2023-12-13T05:40:37.667Z,1.17
2023-12-13T05:43:05.454Z,1.60
2023-12-13T05:45:32.709Z,1.70
2023-12-13T05:48:00.134Z,1.20
2023-12-13T05:50:27.492Z,1.73
2023-12-13T05:52:54.796Z,2.77
2023-12-13T05:55:22.539Z,3.33
2023-12-13T05:57:50.139Z,3.00
2023-12-13T06:00:17.821Z,3.70
2023-12-13T06:02:55.127Z,4.33
2023-12-13T06:05:25.206Z,5.47
2023-12-13T06:07:52.881Z,2.93
2023-12-13T06:10:20.562Z,3.73
2023-12-13T06:12:52.120Z,1.63
2023-12-13T06:15:22.780Z,1.30
2023-12-13T06:17:50.223Z,1.80
2023-12-13T06:20:17.773Z,1.53
2023-12-13T06:22:45.106Z,1.40
2023-12-13T06:25:12.486Z,1.43
2023-12-13T06:27:39.837Z,5.00
2023-12-13T06:30:07.854Z,1.93
2023-12-13T06:32:35.142Z,1.40
2023-12-13T06:35:02.510Z,1.30
2023-12-13T06:37:29.944Z,1.47
2023-12-13T06:39:57.289Z,1.70
2023-12-13T06:42:24.502Z,1.90
2023-12-13T06:44:51.875Z,1.67
2023-12-13T06:47:19.225Z,1.70
2023-12-13T06:49:46.998Z,1.67
2023-12-13T06:52:14.359Z,1.77
2023-12-13T06:54:42.010Z,1.90
2023-12-13T06:57:09.333Z,1.90
2023-12-13T06:59:36.703Z,3.40
2023-12-13T07:02:04.344Z,2.37
2023-12-13T07:04:32.706Z,2.30
2023-12-13T07:07:00.299Z,1.93
2023-12-13T07:09:27.687Z,2.37
2023-12-13T07:11:55.083Z,2.30
2023-12-13T07:14:22.356Z,2.03
2023-12-13T07:16:49.673Z,2.20
2023-12-13T07:19:18.114Z,2.20
2023-12-13T07:21:45.594Z,2.77
2023-12-13T07:24:12.963Z,2.50
2023-12-13T07:26:40.225Z,3.67
2023-12-13T07:29:07.520Z,13.33
2023-12-13T07:31:41.258Z,8.90
2023-12-13T07:34:12.403Z,11.90
2023-12-13T07:36:41.658Z,12.03
2023-12-13T07:39:08.931Z,7.33
2023-12-13T07:41:37.160Z,3.80
2023-12-13T07:44:04.732Z,3.97
2023-12-13T07:46:32.033Z,3.53
2023-12-13T07:49:04.727Z,3.60
2023-12-13T07:51:35.576Z,3.67
2023-12-13T07:54:04.222Z,6.60
2023-12-13T07:56:32.816Z,5.23
2023-12-13T07:59:01.024Z,4.63
2023-12-13T08:01:28.838Z,5.27
2023-12-13T08:03:57.571Z,8.00
2023-12-13T08:06:25.151Z,8.87
2023-12-13T08:08:53.102Z,18.27
2023-12-13T08:11:20.528Z,25.70
2023-12-13T08:13:48.067Z,19.93
2023-12-13T08:16:15.693Z,10.10
2023-12-13T08:18:43.198Z,8.27
2023-12-13T08:21:10.712Z,6.27
2023-12-13T08:23:38.236Z,4.30
2023-12-13T08:26:05.748Z,4.07
2023-12-13T08:28:33.095Z,3.93
2023-12-13T08:31:09.050Z,2.80
2023-12-13T08:33:45.756Z,2.30
2023-12-13T08:36:14.182Z,2.37
2023-12-13T08:38:42.003Z,2.50
2023-12-13T08:41:10.937Z,2.23
2023-12-13T08:43:39.961Z,4.47
2023-12-13T08:46:07.921Z,7.30
2023-12-13T08:48:35.501Z,1.50
2023-12-13T08:51:04.104Z,2.20
2023-12-13T08:53:31.589Z,1.80
2023-12-13T08:55:58.988Z,2.30
2023-12-13T08:58:26.537Z,1.83
2023-12-13T09:00:53.869Z,2.30
2023-12-13T09:03:21.419Z,2.20
2023-12-13T09:05:49.983Z,2.73
2023-12-13T09:08:17.378Z,6.50
2023-12-13T09:10:44.746Z,6.30
2023-12-13T09:13:12.034Z,6.70
2023-12-13T09:15:39.419Z,5.27
2023-12-13T09:18:07.213Z,4.80
2023-12-13T09:20:34.670Z,5.83
2023-12-13T09:23:02.132Z,9.93
2023-12-13T09:25:29.445Z,9.20
2023-12-13T09:27:56.954Z,9.57
2023-12-13T09:30:24.354Z,15.00
2023-12-13T09:32:51.798Z,10.77
2023-12-13T09:35:19.620Z,10.50
2023-12-13T09:37:46.973Z,11.27
2023-12-13T09:40:18.664Z,11.53
2023-12-13T09:42:47.677Z,9.87
2023-12-13T09:45:24.232Z,9.87
2023-12-13T09:47:54.452Z,9.37
2023-12-13T09:50:24.110Z,9.73
2023-12-13T09:52:52.310Z,8.37
2023-12-13T09:55:19.937Z,8.13
2023-12-13T09:57:47.212Z,8.40
2023-12-13T10:00:14.872Z,8.97
2023-12-13T10:02:42.596Z,9.80
2023-12-13T10:05:13.162Z,9.27
2023-12-13T10:07:41.939Z,9.50
2023-12-13T10:10:10.047Z,9.40
2023-12-13T10:12:39.349Z,8.40
2023-12-13T10:15:11.725Z,10.60
2023-12-13T10:17:41.070Z,9.97
2023-12-13T10:20:09.487Z,8.67
2023-12-13T10:22:38.184Z,11.00
2023-12-13T10:25:06.444Z,8.17
2023-12-13T10:27:34.199Z,8.10
2023-12-13T10:30:03.237Z,7.97
2023-12-13T10:32:30.817Z,7.47
2023-12-13T10:34:58.254Z,7.27
2023-12-13T10:37:28.952Z,7.00
2023-12-13T10:39:58.896Z,7.60
2023-12-13T10:42:27.208Z,5.83
2023-12-13T10:44:54.987Z,6.13
2023-12-13T10:47:27.365Z,6.83
2023-12-13T10:49:57.460Z,5.87
2023-12-13T10:52:28.159Z,6.70
2023-12-13T10:54:56.352Z,6.00
2023-12-13T10:57:24.475Z,8.10
2023-12-13T10:59:52.957Z,7.60
2023-12-13T11:02:20.843Z,9.03
2023-12-13T11:04:49.976Z,6.90
2023-12-13T11:07:22.268Z,8.67
2023-12-13T11:09:54.402Z,7.77
2023-12-13T11:12:22.037Z,6.23
2023-12-13T11:14:53.626Z,6.47
2023-12-13T11:17:23.370Z,6.50
2023-12-13T11:19:53.162Z,9.10
2023-12-13T11:22:25.345Z,9.40
2023-12-13T11:25:07.712Z,11.97
2023-12-13T11:27:35.497Z,13.10
2023-12-13T11:30:17.085Z,18.13
2023-12-13T11:32:46.705Z,12.90
2023-12-13T11:35:21.922Z,13.70
2023-12-13T11:37:54.055Z,11.27
2023-12-13T11:40:22.268Z,12.40
2023-12-13T11:42:51.791Z,12.57
2023-12-13T11:45:22.627Z,7.90
2023-12-13T11:47:51.809Z,14.83
2023-12-13T11:50:23.786Z,12.57
2023-12-13T11:52:51.586Z,11.33
2023-12-13T11:55:24.587Z,12.47
2023-12-13T11:57:52.459Z,11.20
2023-12-13T12:00:21.302Z,10.80
2023-12-13T12:02:54.750Z,11.07
2023-12-13T12:05:25.112Z,19.77
2023-12-13T12:08:07.083Z,12.50
2023-12-13T12:10:35.283Z,18.77
2023-12-13T12:13:04.556Z,11.40
2023-12-13T12:15:34.784Z,22.90
2023-12-13T12:18:05.498Z,10.13
2023-12-13T12:20:32.837Z,6.20
2023-12-13T12:23:02.748Z,6.60
2023-12-13T12:25:33.405Z,6.93
2023-12-13T12:28:01.286Z,8.10
2023-12-13T12:30:28.728Z,7.40
2023-12-13T12:32:56.217Z,6.30
2023-12-13T12:35:23.495Z,6.97
2023-12-13T12:37:51.572Z,6.93
2023-12-13T12:40:19.288Z,6.97
2023-12-13T12:42:46.912Z,6.40
2023-12-13T12:45:14.301Z,6.73
2023-12-13T12:47:41.724Z,6.23
2023-12-13T12:50:10.248Z,7.17
2023-12-13T12:52:39.607Z,11.20
2023-12-13T12:55:07.423Z,9.40
2023-12-13T12:57:35.075Z,16.63
2023-12-13T13:00:02.550Z,6.47
2023-12-13T13:02:29.919Z,5.23
2023-12-13T13:04:57.394Z,5.80
2023-12-13T13:07:24.717Z,5.73
2023-12-13T13:09:53.114Z,5.50
2023-12-13T13:12:22.013Z,5.43
2023-12-13T13:14:49.950Z,10.10
2023-12-13T13:17:18.163Z,5.70
2023-12-13T13:19:45.486Z,5.70
2023-12-13T13:22:19.680Z,3.80
2023-12-13T13:24:49.912Z,3.50
2023-12-13T13:27:22.489Z,3.37
2023-12-13T13:29:55.571Z,3.27
2023-12-13T13:32:23.039Z,2.90
2023-12-13T13:34:50.427Z,3.90
2023-12-13T13:37:17.780Z,3.30
2023-12-13T13:39:45.980Z,4.20
2023-12-13T13:42:13.329Z,5.43
2023-12-13T13:44:42.076Z,6.27
2023-12-13T13:47:12.527Z,4.10
2023-12-13T13:49:40.227Z,3.67
2023-12-13T13:52:08.032Z,3.33
2023-12-13T13:54:35.579Z,5.60
2023-12-13T13:57:05.707Z,6.03
2023-12-13T13:59:33.242Z,7.33
2023-12-13T14:02:00.593Z,7.23
2023-12-13T14:04:28.060Z,6.47
2023-12-13T14:06:55.726Z,6.57
2023-12-13T14:09:23.129Z,6.50
2023-12-13T14:11:50.402Z,6.03
2023-12-13T14:14:17.691Z,3.87
2023-12-13T14:16:45.437Z,4.03
2023-12-13T14:19:13.297Z,2.97
2023-12-13T14:21:40.728Z,3.63
2023-12-13T14:24:08.629Z,3.40
2023-12-13T14:26:36.049Z,3.50
2023-12-13T14:29:04.794Z,7.53
2023-12-13T14:31:32.313Z,4.53
2023-12-13T14:33:59.754Z,4.80
2023-12-13T14:36:27.112Z,3.80
2023-12-13T14:38:54.678Z,3.77
2023-12-13T14:41:24.606Z,6.70
2023-12-13T14:43:52.054Z,4.40
2023-12-13T14:46:19.397Z,3.30
2023-12-13T14:48:48.539Z,4.00
2023-12-13T14:51:16.601Z,3.73
2023-12-13T14:53:43.856Z,2.90
2023-12-13T14:56:11.628Z,3.27
2023-12-13T14:58:41.522Z,2.43
2023-12-13T15:01:08.908Z,2.60
2023-12-13T15:03:36.278Z,2.53
2023-12-13T15:06:03.860Z,2.83
2023-12-13T15:08:31.335Z,2.67
2023-12-13T15:10:58.695Z,2.60
2023-12-13T15:13:28.532Z,2.90
2023-12-13T15:15:55.788Z,5.67
2023-12-13T15:18:24.510Z,3.80
2023-12-13T15:20:52.227Z,2.80
2023-12-13T15:23:19.760Z,3.43
2023-12-13T15:25:48.043Z,4.77
2023-12-13T15:28:15.333Z,2.70
2023-12-13T15:30:42.603Z,1.90
2023-12-13T15:33:10.503Z,1.80
2023-12-13T15:35:37.995Z,1.70
2023-12-13T15:38:05.320Z,2.43
2023-12-13T15:40:32.690Z,1.47
2023-12-13T15:42:59.987Z,1.63
2023-12-13T15:45:27.263Z,2.13
2023-12-13T15:47:54.592Z,1.60
2023-12-13T15:50:21.895Z,1.50
2023-12-13T15:52:49.242Z,1.90
2023-12-13T15:55:17.651Z,3.27
2023-12-13T15:57:44.988Z,3.57
2023-12-13T16:00:12.754Z,8.00
2023-12-13T16:02:41.448Z,6.67
2023-12-13T16:05:15.015Z,7.20
2023-12-13T16:07:44.911Z,3.03
2023-12-13T16:10:14.493Z,1.50
2023-12-13T16:12:42.677Z,1.40
2023-12-13T16:15:10.143Z,3.30
2023-12-13T16:17:37.708Z,1.80
2023-12-13T16:20:05.608Z,1.37
2023-12-13T16:22:33.204Z,1.23
2023-12-13T16:25:00.796Z,1.10
2023-12-13T16:27:28.106Z,1.00
2023-12-13T16:29:56.629Z,1.40
2023-12-13T16:32:23.979Z,1.40
2023-12-13T16:34:51.380Z,1.30
2023-12-13T16:37:19.040Z,2.10
2023-12-13T16:39:46.413Z,1.50
2023-12-13T16:42:15.317Z,1.50
2023-12-13T16:44:42.829Z,1.40
2023-12-13T16:47:11.427Z,1.23
2023-12-13T16:49:38.813Z,1.30
2023-12-13T16:52:06.504Z,3.03
2023-12-13T16:54:34.096Z,2.80
2023-12-13T16:57:01.773Z,2.10
2023-12-13T16:59:29.168Z,2.17
2023-12-13T17:01:56.771Z,2.90
2023-12-13T17:04:24.221Z,3.20
2023-12-13T17:06:52.000Z,9.20
2023-12-13T17:09:19.885Z,4.30
2023-12-13T17:11:47.190Z,2.67
2023-12-13T17:14:14.553Z,2.63
2023-12-13T17:16:41.861Z,2.13
2023-12-13T17:19:09.263Z,2.97
2023-12-13T17:21:38.288Z,2.60
2023-12-13T17:24:07.718Z,3.67
2023-12-13T17:26:35.537Z,4.80
2023-12-13T17:29:02.878Z,2.73
2023-12-13T17:31:30.306Z,2.07
2023-12-13T17:33:57.982Z,1.67
2023-12-13T17:36:25.365Z,1.70
2023-12-13T17:38:52.680Z,1.93
2023-12-13T17:41:19.937Z,1.83
2023-12-13T17:43:47.342Z,2.50
2023-12-13T17:46:14.612Z,2.43
2023-12-13T17:48:41.929Z,2.10
2023-12-13T17:51:10.290Z,1.90
2023-12-13T17:53:41.089Z,1.40
2023-12-13T17:56:09.183Z,1.77
2023-12-13T17:58:36.625Z,3.00
2023-12-13T18:01:04.227Z,3.00
2023-12-13T18:03:34.021Z,2.50
2023-12-13T18:06:01.502Z,2.93
2023-12-13T18:08:28.794Z,2.47
2023-12-13T18:10:56.145Z,2.30
2023-12-13T18:13:23.490Z,3.07
2023-12-13T18:15:51.027Z,4.00
2023-12-13T18:18:20.348Z,3.87
2023-12-13T18:20:48.131Z,3.70
2023-12-13T18:23:15.752Z,3.07
2023-12-13T18:25:43.125Z,2.33
2023-12-13T18:28:10.543Z,2.37
2023-12-13T18:30:37.855Z,2.50
2023-12-13T18:33:05.312Z,3.50
2023-12-13T18:35:33.846Z,2.30
2023-12-13T18:38:01.176Z,2.50
2023-12-13T18:40:28.450Z,3.87
2023-12-13T18:42:55.753Z,2.10
2023-12-13T18:45:23.163Z,1.40
2023-12-13T18:47:50.637Z,2.20
2023-12-13T18:50:18.154Z,1.70
2023-12-13T18:52:47.996Z,2.60
2023-12-13T18:55:15.665Z,2.30
2023-12-13T18:57:43.353Z,2.50
2023-12-13T19:00:11.199Z,1.37
2023-12-13T19:02:38.552Z,1.03
2023-12-13T19:05:07.087Z,1.60
2023-12-13T19:07:34.595Z,1.37
2023-12-13T19:10:02.678Z,1.00
2023-12-13T19:12:30.029Z,2.43
2023-12-13T19:14:57.298Z,2.47
2023-12-13T19:17:27.620Z,2.27
2023-12-13T19:19:55.007Z,4.03
2023-12-13T19:22:22.729Z,3.70
2023-12-13T19:24:49.988Z,1.90
2023-12-13T19:27:17.250Z,3.10
2023-12-13T19:29:44.791Z,1.67
2023-12-13T19:32:12.142Z,1.20
2023-12-13T19:34:39.522Z,1.37
2023-12-13T19:37:07.558Z,1.47
2023-12-13T19:39:35.135Z,1.30
2023-12-13T19:42:02.612Z,2.67
2023-12-13T19:44:29.845Z,6.40
2023-12-13T19:46:57.215Z,5.80
2023-12-13T19:49:25.582Z,5.90
2023-12-13T19:51:52.939Z,5.33
2023-12-13T19:54:20.236Z,8.70
2023-12-13T19:56:47.542Z,9.30
2023-12-13T19:59:15.119Z,6.43
2023-12-13T20:01:42.511Z,9.43
2023-12-13T20:04:10.009Z,10.60
2023-12-13T20:06:37.573Z,6.90
2023-12-13T20:09:04.912Z,5.40
2023-12-13T20:11:32.240Z,5.27
2023-12-13T20:14:02.451Z,5.77
2023-12-13T20:16:34.334Z,5.33
2023-12-13T20:19:01.698Z,5.40
2023-12-13T20:21:30.866Z,4.60
2023-12-13T20:24:00.557Z,3.80
2023-12-13T20:26:28.353Z,4.73
2023-12-13T20:28:55.714Z,5.17
2023-12-13T20:31:22.995Z,4.40
2023-12-13T20:33:50.518Z,4.87
2023-12-13T20:36:17.892Z,3.27
2023-12-13T20:38:47.320Z,3.50
2023-12-13T20:41:14.805Z,2.60
2023-12-13T20:43:42.550Z,2.30
2023-12-13T20:46:10.469Z,3.50
2023-12-13T20:48:37.770Z,1.97
2023-12-13T20:51:05.273Z,2.00
2023-12-13T20:53:32.611Z,2.13
2023-12-13T20:55:59.975Z,1.87
2023-12-13T20:58:27.317Z,2.23
2023-12-13T21:00:54.714Z,1.93
2023-12-13T21:03:22.237Z,4.83
2023-12-13T21:05:49.633Z,2.43
2023-12-13T21:08:18.160Z,3.80
2023-12-13T21:10:45.564Z,4.73
2023-12-13T21:13:12.984Z,5.00
2023-12-13T21:15:40.322Z,4.27
2023-12-13T21:18:07.681Z,4.70
2023-12-13T21:20:37.588Z,3.20
2023-12-13T21:23:06.416Z,2.87
2023-12-13T21:25:33.823Z,3.17
2023-12-13T21:28:01.127Z,4.70
2023-12-13T21:30:28.430Z,4.47
2023-12-13T21:32:55.898Z,4.77
2023-12-13T21:35:23.227Z,3.90
2023-12-13T21:37:51.126Z,3.23
2023-12-13T21:40:18.483Z,2.90
2023-12-13T21:42:45.803Z,2.10
2023-12-13T21:45:13.303Z,2.77
2023-12-13T21:47:40.728Z,2.50
2023-12-13T21:50:08.905Z,1.90
2023-12-13T21:52:38.263Z,2.50
2023-12-13T21:55:06.380Z,3.30
2023-12-13T21:57:33.714Z,3.40
2023-12-13T22:00:01.059Z,3.57
2023-12-13T22:02:28.283Z,3.40
2023-12-13T22:04:55.608Z,3.60
2023-12-13T22:07:22.916Z,3.17
2023-12-13T22:09:50.196Z,3.57
2023-12-13T22:12:17.527Z,2.73
2023-12-13T22:14:44.811Z,4.00
2023-12-13T22:17:12.637Z,3.17
2023-12-13T22:19:49.780Z,3.90
2023-12-13T22:22:18.787Z,3.60
2023-12-13T22:24:47.152Z,3.40
2023-12-13T22:27:14.449Z,3.60
2023-12-13T22:29:42.380Z,4.37
2023-12-13T22:32:09.813Z,2.93
2023-12-13T22:34:37.310Z,2.80
2023-12-13T22:37:04.762Z,2.13
2023-12-13T22:39:32.077Z,2.00
2023-12-13T22:41:59.446Z,1.57
2023-12-13T22:44:26.786Z,1.50
2023-12-13T22:46:54.132Z,1.17
2023-12-13T22:49:21.596Z,3.13
2023-12-13T22:52:18.645Z,1.10
2023-12-13T22:54:39.104Z,1.30
2023-12-13T22:57:06.433Z,3.83
2023-12-13T22:59:33.762Z,5.50
2023-12-13T23:02:03.609Z,2.20
2023-12-13T23:04:31.674Z,1.40
2023-12-13T23:06:59.638Z,2.33
2023-12-13T23:09:26.965Z,2.20
2023-12-13T23:11:54.395Z,2.10
2023-12-13T23:14:21.659Z,1.80
2023-12-13T23:16:49.073Z,4.93
2023-12-13T23:19:16.408Z,2.67
2023-12-13T23:21:45.051Z,1.90
2023-12-13T23:24:12.520Z,1.90
2023-12-13T23:26:39.782Z,1.57
2023-12-13T23:29:07.140Z,2.47
2023-12-13T23:31:39.260Z,1.33
2023-12-13T23:34:09.840Z,1.73
2023-12-13T23:36:37.445Z,1.60
2023-12-13T23:39:05.151Z,2.20
2023-12-13T23:41:32.772Z,1.90
2023-12-13T23:44:00.233Z,2.17
2023-12-13T23:46:27.809Z,2.47
2023-12-13T23:48:58.584Z,2.87
2023-12-13T23:51:25.996Z,3.00
2023-12-13T23:53:53.279Z,3.40
2023-12-13T23:56:21.709Z,4.63
2023-12-13T23:58:49.456Z,4.87
